sensor_id;sensor_type;location;lat;lon;timestamp;P1;durP1;ratioP1;P2;durP2;ratioP2
19566;SDS011;9930;49.240;8.548;2023-11-21T00:00:07;2.35;;;1.52;;
19566;SDS011;9930;49.240;8.548;2023-11-21T00:02:37;2.40;;;1.90;;
19566;SDS011;9930;49.240;8.548;2023-11-21T00:05:05;3.80;;;2.00;;
19566;SDS011;9930;49.240;8.548;2023-11-21T00:07:38;3.10;;;2.00;;
19566;SDS011;9930;49.240;8.548;2023-11-21T00:10:07;3.72;;;1.83;;
19566;SDS011;9930;49.240;8.548;2023-11-21T00:12:39;4.85;;;1.83;;
19566;SDS011;9930;49.240;8.548;2023-11-21T00:15:07;2.97;;;1.73;;
19566;SDS011;9930;49.240;8.548;2023-11-21T00:17:39;4.38;;;2.33;;
19566;SDS011;9930;49.240;8.548;2023-11-21T00:20:06;4.78;;;2.10;;
19566;SDS011;9930;49.240;8.548;2023-11-21T00:22:34;4.10;;;2.13;;
19566;SDS011;9930;49.240;8.548;2023-11-21T00:25:01;2.63;;;1.80;;
19566;SDS011;9930;49.240;8.548;2023-11-21T00:27:28;3.33;;;2.10;;
19566;SDS011;9930;49.240;8.548;2023-11-21T00:29:55;3.55;;;1.98;;
19566;SDS011;9930;49.240;8.548;2023-11-21T00:32:20;3.58;;;1.75;;
19566;SDS011;9930;49.240;8.548;2023-11-21T00:34:46;3.17;;;1.95;;
19566;SDS011;9930;49.240;8.548;2023-11-21T00:37:14;3.33;;;2.03;;
19566;SDS011;9930;49.240;8.548;2023-11-21T00:39:42;2.35;;;1.85;;
19566;SDS011;9930;49.240;8.548;2023-11-21T00:42:12;3.55;;;1.80;;
19566;SDS011;9930;49.240;8.548;2023-11-21T00:44:38;3.08;;;1.83;;
19566;SDS011;9930;49.240;8.548;2023-11-21T00:47:04;2.85;;;1.77;;
19566;SDS011;9930;49.240;8.548;2023-11-21T00:49:30;3.58;;;2.00;;
19566;SDS011;9930;49.240;8.548;2023-11-21T00:51:56;2.88;;;1.98;;
19566;SDS011;9930;49.240;8.548;2023-11-21T00:54:23;2.65;;;2.00;;
19566;SDS011;9930;49.240;8.548;2023-11-21T00:56:51;2.63;;;1.65;;
19566;SDS011;9930;49.240;8.548;2023-11-21T00:59:17;3.75;;;1.65;;
19566;SDS011;9930;49.240;8.548;2023-11-21T01:01:42;2.40;;;1.65;;
19566;SDS011;9930;49.240;8.548;2023-11-21T01:04:10;2.72;;;1.75;;
19566;SDS011;9930;49.240;8.548;2023-11-21T01:06:36;2.65;;;1.50;;
19566;SDS011;9930;49.240;8.548;2023-11-21T01:09:05;2.55;;;1.70;;
19566;SDS011;9930;49.240;8.548;2023-11-21T01:11:34;2.45;;;2.00;;
19566;SDS011;9930;49.240;8.548;2023-11-21T01:14:04;3.35;;;1.90;;
19566;SDS011;9930;49.240;8.548;2023-11-21T01:16:31;2.20;;;1.88;;
19566;SDS011;9930;49.240;8.548;2023-11-21T01:18:58;2.25;;;1.77;;
19566;SDS011;9930;49.240;8.548;2023-11-21T01:21:24;3.50;;;2.13;;
19566;SDS011;9930;49.240;8.548;2023-11-21T01:23:51;3.25;;;2.13;;
19566;SDS011;9930;49.240;8.548;2023-11-21T01:26:16;4.45;;;1.83;;
19566;SDS011;9930;49.240;8.548;2023-11-21T01:28:44;1.77;;;1.40;;
19566;SDS011;9930;49.240;8.548;2023-11-21T01:31:10;3.50;;;1.73;;
19566;SDS011;9930;49.240;8.548;2023-11-21T01:33:38;2.88;;;1.42;;
19566;SDS011;9930;49.240;8.548;2023-11-21T01:36:06;3.70;;;1.77;;
19566;SDS011;9930;49.240;8.548;2023-11-21T01:38:38;2.85;;;1.60;;
19566;SDS011;9930;49.240;8.548;2023-11-21T01:41:04;2.75;;;1.50;;
19566;SDS011;9930;49.240;8.548;2023-11-21T01:43:31;2.50;;;1.50;;
19566;SDS011;9930;49.240;8.548;2023-11-21T01:45:57;1.95;;;1.35;;
19566;SDS011;9930;49.240;8.548;2023-11-21T01:48:26;2.22;;;1.30;;
19566;SDS011;9930;49.240;8.548;2023-11-21T01:50:53;2.05;;;1.40;;
19566;SDS011;9930;49.240;8.548;2023-11-21T01:53:19;2.25;;;1.25;;
19566;SDS011;9930;49.240;8.548;2023-11-21T01:55:45;1.55;;;1.23;;
19566;SDS011;9930;49.240;8.548;2023-11-21T01:58:12;3.97;;;1.40;;
19566;SDS011;9930;49.240;8.548;2023-11-21T02:00:41;3.03;;;1.83;;
19566;SDS011;9930;49.240;8.548;2023-11-21T02:03:09;2.75;;;1.42;;
19566;SDS011;9930;49.240;8.548;2023-11-21T02:05:35;2.92;;;1.50;;
19566;SDS011;9930;49.240;8.548;2023-11-21T02:08:03;2.00;;;1.30;;
19566;SDS011;9930;49.240;8.548;2023-11-21T02:10:30;2.90;;;1.50;;
19566;SDS011;9930;49.240;8.548;2023-11-21T02:13:00;1.98;;;1.50;;
19566;SDS011;9930;49.240;8.548;2023-11-21T02:15:30;2.47;;;1.33;;
19566;SDS011;9930;49.240;8.548;2023-11-21T02:18:03;2.38;;;1.40;;
19566;SDS011;9930;49.240;8.548;2023-11-21T02:20:31;2.00;;;1.40;;
19566;SDS011;9930;49.240;8.548;2023-11-21T02:23:02;1.50;;;1.40;;
19566;SDS011;9930;49.240;8.548;2023-11-21T02:25:29;3.40;;;1.83;;
19566;SDS011;9930;49.240;8.548;2023-11-21T02:27:57;1.83;;;1.40;;
19566;SDS011;9930;49.240;8.548;2023-11-21T02:30:27;2.45;;;1.50;;
19566;SDS011;9930;49.240;8.548;2023-11-21T02:32:56;3.33;;;1.60;;
19566;SDS011;9930;49.240;8.548;2023-11-21T02:35:23;2.47;;;1.48;;
19566;SDS011;9930;49.240;8.548;2023-11-21T02:37:51;1.67;;;1.25;;
19566;SDS011;9930;49.240;8.548;2023-11-21T02:40:19;1.60;;;1.35;;
19566;SDS011;9930;49.240;8.548;2023-11-21T02:42:49;1.33;;;1.23;;
19566;SDS011;9930;49.240;8.548;2023-11-21T02:45:16;2.65;;;1.50;;
19566;SDS011;9930;49.240;8.548;2023-11-21T02:47:46;1.63;;;1.23;;
19566;SDS011;9930;49.240;8.548;2023-11-21T02:50:16;1.23;;;1.00;;
19566;SDS011;9930;49.240;8.548;2023-11-21T02:52:45;1.77;;;1.20;;
19566;SDS011;9930;49.240;8.548;2023-11-21T02:55:11;2.13;;;1.30;;
19566;SDS011;9930;49.240;8.548;2023-11-21T02:57:37;2.17;;;1.00;;
19566;SDS011;9930;49.240;8.548;2023-11-21T03:00:11;1.50;;;1.10;;
19566;SDS011;9930;49.240;8.548;2023-11-21T03:02:39;1.50;;;1.10;;
19566;SDS011;9930;49.240;8.548;2023-11-21T03:05:08;1.85;;;1.27;;
19566;SDS011;9930;49.240;8.548;2023-11-21T03:07:37;1.30;;;1.20;;
19566;SDS011;9930;49.240;8.548;2023-11-21T03:10:05;1.23;;;1.13;;
19566;SDS011;9930;49.240;8.548;2023-11-21T03:12:38;1.52;;;1.20;;
19566;SDS011;9930;49.240;8.548;2023-11-21T03:15:07;1.70;;;1.30;;
19566;SDS011;9930;49.240;8.548;2023-11-21T03:17:40;1.20;;;1.10;;
19566;SDS011;9930;49.240;8.548;2023-11-21T03:20:06;1.52;;;1.30;;
19566;SDS011;9930;49.240;8.548;2023-11-21T03:22:37;1.40;;;1.30;;
19566;SDS011;9930;49.240;8.548;2023-11-21T03:25:09;1.60;;;1.30;;
19566;SDS011;9930;49.240;8.548;2023-11-21T03:27:38;1.73;;;1.50;;
19566;SDS011;9930;49.240;8.548;2023-11-21T03:30:07;2.30;;;1.40;;
19566;SDS011;9930;49.240;8.548;2023-11-21T03:32:34;1.63;;;1.52;;
19566;SDS011;9930;49.240;8.548;2023-11-21T03:35:05;4.32;;;1.63;;
19566;SDS011;9930;49.240;8.548;2023-11-21T03:37:32;2.22;;;1.30;;
19566;SDS011;9930;49.240;8.548;2023-11-21T03:39:58;2.13;;;1.38;;
19566;SDS011;9930;49.240;8.548;2023-11-21T03:42:29;1.95;;;1.23;;
19566;SDS011;9930;49.240;8.548;2023-11-21T03:44:59;1.88;;;1.40;;
19566;SDS011;9930;49.240;8.548;2023-11-21T03:47:26;1.55;;;1.38;;
19566;SDS011;9930;49.240;8.548;2023-11-21T03:49:53;2.50;;;1.50;;
19566;SDS011;9930;49.240;8.548;2023-11-21T03:52:18;2.47;;;1.50;;
19566;SDS011;9930;49.240;8.548;2023-11-21T03:54:44;1.42;;;1.20;;
19566;SDS011;9930;49.240;8.548;2023-11-21T03:57:12;1.65;;;1.50;;
19566;SDS011;9930;49.240;8.548;2023-11-21T03:59:41;1.58;;;1.42;;
19566;SDS011;9930;49.240;8.548;2023-11-21T04:02:10;1.52;;;1.38;;
19566;SDS011;9930;49.240;8.548;2023-11-21T04:04:38;2.00;;;1.58;;
19566;SDS011;9930;49.240;8.548;2023-11-21T04:07:04;3.72;;;1.65;;
19566;SDS011;9930;49.240;8.548;2023-11-21T04:09:30;2.30;;;1.40;;
19566;SDS011;9930;49.240;8.548;2023-11-21T04:11:56;2.00;;;1.58;;
19566;SDS011;9930;49.240;8.548;2023-11-21T04:14:22;2.47;;;1.45;;
19566;SDS011;9930;49.240;8.548;2023-11-21T04:16:48;2.08;;;1.52;;
19566;SDS011;9930;49.240;8.548;2023-11-21T04:19:15;2.42;;;1.40;;
19566;SDS011;9930;49.240;8.548;2023-11-21T04:21:42;2.95;;;1.50;;
19566;SDS011;9930;49.240;8.548;2023-11-21T04:24:08;2.30;;;1.17;;
19566;SDS011;9930;49.240;8.548;2023-11-21T04:26:37;2.22;;;1.40;;
19566;SDS011;9930;49.240;8.548;2023-11-21T04:29:03;2.78;;;1.38;;
19566;SDS011;9930;49.240;8.548;2023-11-21T04:31:29;1.55;;;1.30;;
19566;SDS011;9930;49.240;8.548;2023-11-21T04:33:55;1.63;;;1.45;;
19566;SDS011;9930;49.240;8.548;2023-11-21T04:36:21;1.55;;;1.38;;
19566;SDS011;9930;49.240;8.548;2023-11-21T04:38:49;2.42;;;1.85;;
19566;SDS011;9930;49.240;8.548;2023-11-21T04:41:16;1.73;;;1.50;;
19566;SDS011;9930;49.240;8.548;2023-11-21T04:43:43;1.60;;;1.50;;
19566;SDS011;9930;49.240;8.548;2023-11-21T04:46:14;2.40;;;1.50;;
19566;SDS011;9930;49.240;8.548;2023-11-21T04:48:40;2.80;;;1.38;;
19566;SDS011;9930;49.240;8.548;2023-11-21T04:51:17;2.10;;;1.38;;
19566;SDS011;9930;49.240;8.548;2023-11-21T04:53:43;3.60;;;1.35;;
19566;SDS011;9930;49.240;8.548;2023-11-21T04:56:11;2.83;;;1.45;;
19566;SDS011;9930;49.240;8.548;2023-11-21T04:58:38;2.17;;;1.60;;
19566;SDS011;9930;49.240;8.548;2023-11-21T05:01:05;1.88;;;1.50;;
19566;SDS011;9930;49.240;8.548;2023-11-21T05:03:35;2.05;;;1.67;;
19566;SDS011;9930;49.240;8.548;2023-11-21T05:06:05;1.85;;;1.60;;
19566;SDS011;9930;49.240;8.548;2023-11-21T05:08:34;1.88;;;1.73;;
19566;SDS011;9930;49.240;8.548;2023-11-21T05:11:02;2.35;;;1.88;;
19566;SDS011;9930;49.240;8.548;2023-11-21T05:13:28;2.13;;;1.77;;
19566;SDS011;9930;49.240;8.548;2023-11-21T05:16:02;2.20;;;1.42;;
19566;SDS011;9930;49.240;8.548;2023-11-21T05:18:32;2.40;;;1.55;;
19566;SDS011;9930;49.240;8.548;2023-11-21T05:20:59;1.75;;;1.30;;
19566;SDS011;9930;49.240;8.548;2023-11-21T05:23:25;2.85;;;1.70;;
19566;SDS011;9930;49.240;8.548;2023-11-21T05:25:51;1.27;;;1.13;;
19566;SDS011;9930;49.240;8.548;2023-11-21T05:28:17;1.60;;;1.50;;
19566;SDS011;9930;49.240;8.548;2023-11-21T05:30:43;3.92;;;1.70;;
19566;SDS011;9930;49.240;8.548;2023-11-21T05:33:09;1.95;;;1.60;;
19566;SDS011;9930;49.240;8.548;2023-11-21T05:35:35;2.10;;;1.60;;
19566;SDS011;9930;49.240;8.548;2023-11-21T05:38:02;1.40;;;1.30;;
19566;SDS011;9930;49.240;8.548;2023-11-21T05:40:27;2.55;;;1.70;;
19566;SDS011;9930;49.240;8.548;2023-11-21T05:42:55;1.85;;;1.60;;
19566;SDS011;9930;49.240;8.548;2023-11-21T05:45:23;1.90;;;1.67;;
19566;SDS011;9930;49.240;8.548;2023-11-21T05:47:48;2.35;;;2.08;;
19566;SDS011;9930;49.240;8.548;2023-11-21T05:50:15;2.42;;;1.70;;
19566;SDS011;9930;49.240;8.548;2023-11-21T05:52:44;1.73;;;1.63;;
19566;SDS011;9930;49.240;8.548;2023-11-21T05:55:12;2.63;;;1.95;;
19566;SDS011;9930;49.240;8.548;2023-11-21T05:57:39;1.80;;;1.70;;
19566;SDS011;9930;49.240;8.548;2023-11-21T06:00:13;1.85;;;1.75;;
19566;SDS011;9930;49.240;8.548;2023-11-21T06:02:51;1.77;;;1.67;;
19566;SDS011;9930;49.240;8.548;2023-11-21T06:05:22;2.58;;;2.15;;
19566;SDS011;9930;49.240;8.548;2023-11-21T06:07:55;2.13;;;1.92;;
19566;SDS011;9930;49.240;8.548;2023-11-21T06:10:26;2.35;;;2.15;;
19566;SDS011;9930;49.240;8.548;2023-11-21T06:12:57;2.70;;;2.50;;
19566;SDS011;9930;49.240;8.548;2023-11-21T06:15:26;3.28;;;3.05;;
19566;SDS011;9930;49.240;8.548;2023-11-21T06:17:51;3.33;;;3.03;;
19566;SDS011;9930;49.240;8.548;2023-11-21T06:20:19;3.17;;;2.50;;
19566;SDS011;9930;49.240;8.548;2023-11-21T06:22:48;2.60;;;2.40;;
19566;SDS011;9930;49.240;8.548;2023-11-21T06:25:15;3.05;;;2.75;;
19566;SDS011;9930;49.240;8.548;2023-11-21T06:27:44;2.38;;;2.17;;
19566;SDS011;9930;49.240;8.548;2023-11-21T06:30:13;3.13;;;2.60;;
19566;SDS011;9930;49.240;8.548;2023-11-21T06:32:41;2.65;;;2.30;;
19566;SDS011;9930;49.240;8.548;2023-11-21T06:35:17;3.90;;;2.60;;
19566;SDS011;9930;49.240;8.548;2023-11-21T06:37:43;2.72;;;2.50;;
19566;SDS011;9930;49.240;8.548;2023-11-21T06:40:12;4.75;;;4.35;;
19566;SDS011;9930;49.240;8.548;2023-11-21T06:42:44;7.90;;;7.20;;
19566;SDS011;9930;49.240;8.548;2023-11-21T06:45:11;4.63;;;4.22;;
19566;SDS011;9930;49.240;8.548;2023-11-21T06:47:41;4.93;;;4.47;;
19566;SDS011;9930;49.240;8.548;2023-11-21T06:50:07;8.57;;;7.82;;
19566;SDS011;9930;49.240;8.548;2023-11-21T06:52:34;4.35;;;3.95;;
19566;SDS011;9930;49.240;8.548;2023-11-21T06:55:03;4.05;;;3.20;;
19566;SDS011;9930;49.240;8.548;2023-11-21T06:57:30;2.90;;;2.65;;
19566;SDS011;9930;49.240;8.548;2023-11-21T07:00:03;4.68;;;2.60;;
19566;SDS011;9930;49.240;8.548;2023-11-21T07:02:29;2.30;;;2.20;;
19566;SDS011;9930;49.240;8.548;2023-11-21T07:04:58;3.08;;;2.40;;
19566;SDS011;9930;49.240;8.548;2023-11-21T07:07:27;2.97;;;2.67;;
19566;SDS011;9930;49.240;8.548;2023-11-21T07:09:52;2.80;;;2.47;;
19566;SDS011;9930;49.240;8.548;2023-11-21T07:12:18;2.90;;;2.60;;
19566;SDS011;9930;49.240;8.548;2023-11-21T07:14:46;2.85;;;2.63;;
19566;SDS011;9930;49.240;8.548;2023-11-21T07:17:17;2.67;;;2.47;;
19566;SDS011;9930;49.240;8.548;2023-11-21T07:19:43;2.55;;;2.35;;
19566;SDS011;9930;49.240;8.548;2023-11-21T07:22:13;2.58;;;2.38;;
19566;SDS011;9930;49.240;8.548;2023-11-21T07:24:39;2.58;;;2.38;;
19566;SDS011;9930;49.240;8.548;2023-11-21T07:27:08;3.05;;;2.78;;
19566;SDS011;9930;49.240;8.548;2023-11-21T07:29:36;3.33;;;3.00;;
19566;SDS011;9930;49.240;8.548;2023-11-21T07:32:05;3.25;;;2.95;;
19566;SDS011;9930;49.240;8.548;2023-11-21T07:34:34;3.58;;;3.28;;
19566;SDS011;9930;49.240;8.548;2023-11-21T07:37:01;3.53;;;3.25;;
19566;SDS011;9930;49.240;8.548;2023-11-21T07:39:29;4.78;;;3.00;;
19566;SDS011;9930;49.240;8.548;2023-11-21T07:41:55;5.40;;;3.15;;
19566;SDS011;9930;49.240;8.548;2023-11-21T07:44:25;4.13;;;3.50;;
19566;SDS011;9930;49.240;8.548;2023-11-21T07:46:51;3.42;;;3.13;;
19566;SDS011;9930;49.240;8.548;2023-11-21T07:49:17;4.18;;;3.50;;
19566;SDS011;9930;49.240;8.548;2023-11-21T07:51:45;3.88;;;3.58;;
19566;SDS011;9930;49.240;8.548;2023-11-21T07:54:16;5.03;;;4.53;;
19566;SDS011;9930;49.240;8.548;2023-11-21T07:56:44;5.22;;;4.68;;
19566;SDS011;9930;49.240;8.548;2023-11-21T07:59:10;5.38;;;4.78;;
19566;SDS011;9930;49.240;8.548;2023-11-21T08:01:40;6.28;;;5.65;;
19566;SDS011;9930;49.240;8.548;2023-11-21T08:04:08;7.50;;;6.07;;
19566;SDS011;9930;49.240;8.548;2023-11-21T08:06:34;6.40;;;5.78;;
19566;SDS011;9930;49.240;8.548;2023-11-21T08:09:00;6.90;;;6.20;;
19566;SDS011;9930;49.240;8.548;2023-11-21T08:11:28;7.00;;;6.40;;
19566;SDS011;9930;49.240;8.548;2023-11-21T08:14:00;8.32;;;6.55;;
19566;SDS011;9930;49.240;8.548;2023-11-21T08:16:25;7.43;;;6.60;;
19566;SDS011;9930;49.240;8.548;2023-11-21T08:18:52;7.25;;;6.55;;
19566;SDS011;9930;49.240;8.548;2023-11-21T08:21:22;7.63;;;6.93;;
19566;SDS011;9930;49.240;8.548;2023-11-21T08:23:52;7.97;;;7.22;;
19566;SDS011;9930;49.240;8.548;2023-11-21T08:26:19;7.60;;;6.90;;
19566;SDS011;9930;49.240;8.548;2023-11-21T08:28:46;8.05;;;7.25;;
19566;SDS011;9930;49.240;8.548;2023-11-21T08:31:14;8.93;;;7.40;;
19566;SDS011;9930;49.240;8.548;2023-11-21T08:33:45;8.52;;;7.60;;
19566;SDS011;9930;49.240;8.548;2023-11-21T08:36:10;8.43;;;7.57;;
19566;SDS011;9930;49.240;8.548;2023-11-21T08:38:38;8.13;;;7.32;;
19566;SDS011;9930;49.240;8.548;2023-11-21T08:41:05;8.13;;;7.32;;
19566;SDS011;9930;49.240;8.548;2023-11-21T08:43:36;8.18;;;7.47;;
19566;SDS011;9930;49.240;8.548;2023-11-21T08:46:06;8.48;;;7.70;;
19566;SDS011;9930;49.240;8.548;2023-11-21T08:48:35;8.40;;;7.60;;
19566;SDS011;9930;49.240;8.548;2023-11-21T08:51:03;8.88;;;7.72;;
19566;SDS011;9930;49.240;8.548;2023-11-21T08:53:29;8.88;;;7.60;;
19566;SDS011;9930;49.240;8.548;2023-11-21T08:55:57;8.27;;;7.47;;
19566;SDS011;9930;49.240;8.548;2023-11-21T08:58:23;8.60;;;7.70;;
19566;SDS011;9930;49.240;8.548;2023-11-21T09:00:49;8.02;;;7.30;;
19566;SDS011;9930;49.240;8.548;2023-11-21T09:03:15;8.70;;;7.85;;
19566;SDS011;9930;49.240;8.548;2023-11-21T09:05:43;8.77;;;7.97;;
19566;SDS011;9930;49.240;8.548;2023-11-21T09:08:09;9.20;;;8.30;;
19566;SDS011;9930;49.240;8.548;2023-11-21T09:10:35;8.70;;;7.90;;
19566;SDS011;9930;49.240;8.548;2023-11-21T09:13:02;8.13;;;7.40;;
19566;SDS011;9930;49.240;8.548;2023-11-21T09:15:28;8.50;;;7.70;;
19566;SDS011;9930;49.240;8.548;2023-11-21T09:17:53;9.45;;;8.55;;
19566;SDS011;9930;49.240;8.548;2023-11-21T09:20:19;7.53;;;6.93;;
19566;SDS011;9930;49.240;8.548;2023-11-21T09:22:49;8.60;;;7.70;;
19566;SDS011;9930;49.240;8.548;2023-11-21T09:25:15;8.70;;;7.80;;
19566;SDS011;9930;49.240;8.548;2023-11-21T09:27:44;7.18;;;6.57;;
19566;SDS011;9930;49.240;8.548;2023-11-21T09:30:11;6.60;;;6.03;;
19566;SDS011;9930;49.240;8.548;2023-11-21T09:32:39;6.57;;;5.97;;
19566;SDS011;9930;49.240;8.548;2023-11-21T09:35:05;6.60;;;6.00;;
19566;SDS011;9930;49.240;8.548;2023-11-21T09:37:36;5.47;;;4.97;;
19566;SDS011;9930;49.240;8.548;2023-11-21T09:40:05;5.75;;;5.25;;
19566;SDS011;9930;49.240;8.548;2023-11-21T09:42:42;5.63;;;5.15;;
19566;SDS011;9930;49.240;8.548;2023-11-21T09:47:59;6.80;;;6.15;;
19566;SDS011;9930;49.240;8.548;2023-11-21T09:50:30;6.20;;;5.70;;
19566;SDS011;9930;49.240;8.548;2023-11-21T09:53:09;7.03;;;6.32;;
19566;SDS011;9930;49.240;8.548;2023-11-21T09:55:43;8.00;;;7.30;;
19566;SDS011;9930;49.240;8.548;2023-11-21T09:58:12;8.05;;;7.30;;
19566;SDS011;9930;49.240;8.548;2023-11-21T10:00:40;8.85;;;8.05;;
19566;SDS011;9930;49.240;8.548;2023-11-21T10:03:10;7.57;;;6.88;;
19566;SDS011;9930;49.240;8.548;2023-11-21T10:05:43;7.60;;;6.90;;
19566;SDS011;9930;49.240;8.548;2023-11-21T10:08:13;7.32;;;6.63;;
19566;SDS011;9930;49.240;8.548;2023-11-21T10:10:44;7.07;;;6.50;;
19566;SDS011;9930;49.240;8.548;2023-11-21T10:13:14;7.40;;;6.80;;
19566;SDS011;9930;49.240;8.548;2023-11-21T10:15:43;6.32;;;5.80;;
19566;SDS011;9930;49.240;8.548;2023-11-21T10:18:13;5.85;;;5.35;;
19566;SDS011;9930;49.240;8.548;2023-11-21T10:20:44;5.10;;;4.70;;
19566;SDS011;9930;49.240;8.548;2023-11-21T10:23:17;5.32;;;4.68;;
19566;SDS011;9930;49.240;8.548;2023-11-21T10:25:52;4.30;;;4.00;;
19566;SDS011;9930;49.240;8.548;2023-11-21T10:28:20;4.22;;;3.92;;
19566;SDS011;9930;49.240;8.548;2023-11-21T10:30:46;3.83;;;3.53;;
19566;SDS011;9930;49.240;8.548;2023-11-21T10:33:12;3.75;;;3.45;;
19566;SDS011;9930;49.240;8.548;2023-11-21T10:35:47;2.63;;;2.42;;
19566;SDS011;9930;49.240;8.548;2023-11-21T10:38:19;2.38;;;2.17;;
19566;SDS011;9930;49.240;8.548;2023-11-21T10:40:48;2.28;;;2.08;;
19566;SDS011;9930;49.240;8.548;2023-11-21T10:43:14;2.03;;;1.70;;
19566;SDS011;9930;49.240;8.548;2023-11-21T10:45:40;1.83;;;1.70;;
19566;SDS011;9930;49.240;8.548;2023-11-21T10:48:08;1.75;;;1.60;;
19566;SDS011;9930;49.240;8.548;2023-11-21T10:50:40;2.13;;;1.92;;
19566;SDS011;9930;49.240;8.548;2023-11-21T10:53:07;1.88;;;1.70;;
19566;SDS011;9930;49.240;8.548;2023-11-21T10:55:33;1.98;;;1.88;;
19566;SDS011;9930;49.240;8.548;2023-11-21T10:58:02;2.00;;;1.80;;
19566;SDS011;9930;49.240;8.548;2023-11-21T11:00:31;2.08;;;1.80;;
19566;SDS011;9930;49.240;8.548;2023-11-21T11:02:58;1.90;;;1.80;;
19566;SDS011;9930;49.240;8.548;2023-11-21T11:05:26;2.13;;;2.03;;
19566;SDS011;9930;49.240;8.548;2023-11-21T11:08:11;2.22;;;2.08;;
19566;SDS011;9930;49.240;8.548;2023-11-21T11:10:43;2.30;;;2.10;;
19566;SDS011;9930;49.240;8.548;2023-11-21T11:13:12;2.45;;;2.25;;
19566;SDS011;9930;49.240;8.548;2023-11-21T11:15:40;2.25;;;2.15;;
19566;SDS011;9930;49.240;8.548;2023-11-21T11:18:12;2.58;;;2.38;;
19566;SDS011;9930;49.240;8.548;2023-11-21T11:20:38;2.47;;;2.28;;
19566;SDS011;9930;49.240;8.548;2023-11-21T11:28:59;3.30;;;3.05;;
19566;SDS011;9930;49.240;8.548;2023-11-21T11:34:29;3.97;;;3.67;;
19566;SDS011;9930;49.240;8.548;2023-11-21T11:37:04;4.90;;;4.40;;
19566;SDS011;9930;49.240;8.548;2023-11-21T11:42:16;5.15;;;4.75;;
19566;SDS011;9930;49.240;8.548;2023-11-21T11:47:14;5.25;;;4.75;;
19566;SDS011;9930;49.240;8.548;2023-11-21T11:52:50;6.78;;;6.05;;
19566;SDS011;9930;49.240;8.548;2023-11-21T11:55:18;6.38;;;5.82;;
19566;SDS011;9930;49.240;8.548;2023-11-21T11:57:49;6.82;;;6.20;;
19566;SDS011;9930;49.240;8.548;2023-11-21T12:02:59;7.00;;;6.30;;
19566;SDS011;9930;49.240;8.548;2023-11-21T12:05:28;7.05;;;6.35;;
19566;SDS011;9930;49.240;8.548;2023-11-21T12:08:10;6.32;;;5.75;;
19566;SDS011;9930;49.240;8.548;2023-11-21T12:10:43;5.63;;;5.13;;
19566;SDS011;9930;49.240;8.548;2023-11-21T12:13:09;5.00;;;4.60;;
19566;SDS011;9930;49.240;8.548;2023-11-21T12:15:37;4.90;;;4.18;;
19566;SDS011;9930;49.240;8.548;2023-11-21T12:18:06;5.22;;;4.00;;
19566;SDS011;9930;49.240;8.548;2023-11-21T12:20:35;3.95;;;3.65;;
19566;SDS011;9930;49.240;8.548;2023-11-21T12:23:03;3.60;;;3.30;;
19566;SDS011;9930;49.240;8.548;2023-11-21T12:25:31;3.20;;;3.00;;
19566;SDS011;9930;49.240;8.548;2023-11-21T12:27:58;3.35;;;3.05;;
19566;SDS011;9930;49.240;8.548;2023-11-21T12:30:26;3.08;;;2.88;;
19566;SDS011;9930;49.240;8.548;2023-11-21T12:32:59;3.20;;;2.95;;
19566;SDS011;9930;49.240;8.548;2023-11-21T12:35:29;3.50;;;3.20;;
19566;SDS011;9930;49.240;8.548;2023-11-21T12:37:59;2.80;;;2.60;;
19566;SDS011;9930;49.240;8.548;2023-11-21T12:40:30;2.67;;;2.47;;
19566;SDS011;9930;49.240;8.548;2023-11-21T12:42:57;3.17;;;2.70;;
19566;SDS011;9930;49.240;8.548;2023-11-21T12:45:26;3.10;;;2.90;;
19566;SDS011;9930;49.240;8.548;2023-11-21T12:47:58;3.25;;;2.97;;
19566;SDS011;9930;49.240;8.548;2023-11-21T12:50:28;2.95;;;2.70;;
19566;SDS011;9930;49.240;8.548;2023-11-21T12:53:02;3.10;;;2.80;;
19566;SDS011;9930;49.240;8.548;2023-11-21T12:55:35;2.88;;;2.67;;
19566;SDS011;9930;49.240;8.548;2023-11-21T12:58:05;2.72;;;2.53;;
19566;SDS011;9930;49.240;8.548;2023-11-21T13:00:44;3.10;;;2.78;;
19566;SDS011;9930;49.240;8.548;2023-11-21T13:03:13;2.70;;;2.50;;
19566;SDS011;9930;49.240;8.548;2023-11-21T13:05:50;2.72;;;2.53;;
19566;SDS011;9930;49.240;8.548;2023-11-21T13:08:23;2.72;;;2.53;;
19566;SDS011;9930;49.240;8.548;2023-11-21T13:10:54;3.22;;;2.60;;
19566;SDS011;9930;49.240;8.548;2023-11-21T13:13:22;2.80;;;2.60;;
19566;SDS011;9930;49.240;8.548;2023-11-21T13:15:50;2.55;;;2.35;;
19566;SDS011;9930;49.240;8.548;2023-11-21T13:18:21;2.40;;;2.20;;
19566;SDS011;9930;49.240;8.548;2023-11-21T13:21:11;3.00;;;2.65;;
19566;SDS011;9930;49.240;8.548;2023-11-21T13:23:41;2.92;;;2.60;;
19566;SDS011;9930;49.240;8.548;2023-11-21T13:26:11;2.53;;;2.33;;
19566;SDS011;9930;49.240;8.548;2023-11-21T13:28:37;2.60;;;2.40;;
19566;SDS011;9930;49.240;8.548;2023-11-21T13:31:06;3.58;;;2.63;;
19566;SDS011;9930;49.240;8.548;2023-11-21T13:33:56;3.28;;;2.97;;
19566;SDS011;9930;49.240;8.548;2023-11-21T13:36:24;3.13;;;2.92;;
19566;SDS011;9930;49.240;8.548;2023-11-21T13:38:50;3.42;;;3.10;;
19566;SDS011;9930;49.240;8.548;2023-11-21T13:41:20;3.33;;;3.10;;
19566;SDS011;9930;49.240;8.548;2023-11-21T13:43:57;3.33;;;3.00;;
19566;SDS011;9930;49.240;8.548;2023-11-21T13:46:41;3.30;;;2.88;;
19566;SDS011;9930;49.240;8.548;2023-11-21T13:49:07;2.97;;;2.70;;
19566;SDS011;9930;49.240;8.548;2023-11-21T13:51:35;3.40;;;3.10;;
19566;SDS011;9930;49.240;8.548;2023-11-21T13:54:09;4.07;;;2.97;;
19566;SDS011;9930;49.240;8.548;2023-11-21T13:56:36;3.33;;;3.13;;
19566;SDS011;9930;49.240;8.548;2023-11-21T13:59:15;3.00;;;2.80;;
19566;SDS011;9930;49.240;8.548;2023-11-21T14:02:12;3.42;;;2.65;;
19566;SDS011;9930;49.240;8.548;2023-11-21T14:04:44;2.88;;;2.67;;
19566;SDS011;9930;49.240;8.548;2023-11-21T14:07:25;3.13;;;2.35;;
19566;SDS011;9930;49.240;8.548;2023-11-21T14:10:02;3.58;;;2.50;;
19566;SDS011;9930;49.240;8.548;2023-11-21T14:12:33;2.60;;;2.38;;
19566;SDS011;9930;49.240;8.548;2023-11-21T14:15:01;2.53;;;2.33;;
19566;SDS011;9930;49.240;8.548;2023-11-21T14:17:29;2.50;;;2.30;;
19566;SDS011;9930;49.240;8.548;2023-11-21T14:19:55;2.60;;;2.40;;
19566;SDS011;9930;49.240;8.548;2023-11-21T14:22:21;4.22;;;2.30;;
19566;SDS011;9930;49.240;8.548;2023-11-21T14:24:47;2.40;;;2.03;;
19566;SDS011;9930;49.240;8.548;2023-11-21T14:27:17;2.63;;;2.22;;
19566;SDS011;9930;49.240;8.548;2023-11-21T14:29:42;21.13;;;12.38;;
19566;SDS011;9930;49.240;8.548;2023-11-21T14:32:13;5.60;;;4.50;;
19566;SDS011;9930;49.240;8.548;2023-11-21T14:34:42;5.55;;;3.42;;
19566;SDS011;9930;49.240;8.548;2023-11-21T14:37:11;3.53;;;2.60;;
19566;SDS011;9930;49.240;8.548;2023-11-21T14:39:39;3.22;;;2.47;;
19566;SDS011;9930;49.240;8.548;2023-11-21T14:42:11;2.90;;;2.03;;
19566;SDS011;9930;49.240;8.548;2023-11-21T14:44:37;2.42;;;2.15;;
19566;SDS011;9930;49.240;8.548;2023-11-21T14:47:08;2.75;;;2.22;;
19566;SDS011;9930;49.240;8.548;2023-11-21T14:49:44;2.83;;;2.50;;
19566;SDS011;9930;49.240;8.548;2023-11-21T14:52:19;3.38;;;2.40;;
19566;SDS011;9930;49.240;8.548;2023-11-21T14:54:59;3.47;;;2.60;;
19566;SDS011;9930;49.240;8.548;2023-11-21T14:57:45;2.97;;;2.67;;
19566;SDS011;9930;49.240;8.548;2023-11-21T15:00:17;2.75;;;2.35;;
19566;SDS011;9930;49.240;8.548;2023-11-21T15:02:59;2.88;;;2.65;;
19566;SDS011;9930;49.240;8.548;2023-11-21T15:05:25;3.03;;;2.67;;
19566;SDS011;9930;49.240;8.548;2023-11-21T15:07:54;3.70;;;2.78;;
19566;SDS011;9930;49.240;8.548;2023-11-21T15:10:44;4.85;;;2.90;;
19566;SDS011;9930;49.240;8.548;2023-11-21T15:13:18;2.83;;;2.50;;
19566;SDS011;9930;49.240;8.548;2023-11-21T15:15:46;3.70;;;2.70;;
19566;SDS011;9930;49.240;8.548;2023-11-21T15:18:12;3.35;;;2.90;;
19566;SDS011;9930;49.240;8.548;2023-11-21T15:20:41;3.20;;;2.70;;
19566;SDS011;9930;49.240;8.548;2023-11-21T15:23:08;3.95;;;3.03;;
19566;SDS011;9930;49.240;8.548;2023-11-21T15:25:41;3.63;;;3.13;;
19566;SDS011;9930;49.240;8.548;2023-11-21T15:28:11;5.55;;;3.67;;
19566;SDS011;9930;49.240;8.548;2023-11-21T15:30:37;4.22;;;3.40;;
19566;SDS011;9930;49.240;8.548;2023-11-21T15:33:06;5.72;;;4.10;;